createdAt,value
2018-01-23T00:00:13.689Z,10.20
2018-01-23T00:02:42.738Z,10.57
2018-01-23T00:05:11.750Z,10.10
2018-01-23T00:07:40.755Z,9.43
2018-01-23T00:10:09.714Z,9.23
2018-01-23T00:12:38.746Z,11.27
2018-01-23T00:30:31.756Z,8.10
2018-01-23T00:33:00.812Z,7.50
2018-01-23T00:35:29.801Z,6.97
2018-01-23T00:37:58.759Z,6.93
2018-01-23T00:40:28.704Z,7.93
2018-01-23T00:42:57.833Z,7.87
2018-01-23T00:45:26.927Z,7.10
2018-01-23T00:47:55.870Z,8.30
2018-01-23T00:50:24.812Z,8.00
2018-01-23T00:52:53.953Z,7.87
2018-01-23T00:55:23.099Z,8.40
2018-01-23T00:57:52.047Z,8.00
2018-01-23T01:00:21.114Z,8.17
2018-01-23T01:02:50.069Z,9.57
2018-01-23T01:05:19.122Z,7.60
2018-01-23T01:07:48.163Z,5.67
2018-01-23T01:10:17.222Z,6.93
2018-01-23T01:12:46.312Z,6.23
2018-01-23T01:15:15.414Z,6.90
2018-01-23T01:17:44.336Z,7.27
2018-01-23T01:20:13.514Z,7.20
2018-01-23T01:22:42.876Z,7.00
2018-01-23T01:25:11.926Z,6.53
2018-01-23T01:27:41.045Z,7.03
2018-01-23T01:30:10.017Z,5.97
2018-01-23T01:32:39.215Z,6.40
2018-01-23T01:35:08.164Z,6.23
2018-01-23T01:37:38.452Z,5.70
2018-01-23T01:40:07.490Z,7.50
2018-01-23T01:42:36.430Z,5.93
2018-01-23T01:45:05.740Z,7.73
2018-01-23T01:47:34.808Z,5.73
2018-01-23T01:50:03.740Z,5.23
2018-01-23T01:52:32.848Z,5.20
2018-01-23T01:55:01.933Z,5.57
2018-01-23T01:57:31.128Z,6.20
2018-01-23T02:00:00.452Z,5.93
2018-01-23T02:02:29.462Z,5.47
2018-01-23T02:04:58.426Z,5.23
2018-01-23T02:07:27.369Z,5.13
2018-01-23T02:09:56.656Z,4.83
2018-01-23T02:12:25.692Z,5.03
2018-01-23T02:14:54.749Z,5.17
2018-01-23T02:17:23.672Z,4.90
2018-01-23T02:19:53.426Z,5.80
2018-01-23T02:22:22.719Z,5.87
2018-01-23T02:24:52.579Z,5.03
2018-01-23T02:27:21.558Z,5.40
2018-01-23T02:29:50.641Z,5.83
2018-01-23T02:32:19.639Z,4.83
2018-01-23T02:34:48.897Z,5.87
2018-01-23T02:37:18.111Z,5.80
2018-01-23T02:39:47.330Z,6.07
2018-01-23T02:42:16.272Z,4.57
2018-01-23T02:44:45.474Z,4.90
2018-01-23T02:47:14.890Z,6.00
2018-01-23T02:49:43.822Z,5.60
2018-01-23T02:52:12.784Z,5.37
2018-01-23T02:54:41.705Z,5.00
2018-01-23T02:57:10.715Z,4.67
2018-01-23T02:59:40.034Z,4.80
2018-01-23T03:02:08.969Z,4.90
2018-01-23T03:04:37.906Z,6.10
2018-01-23T03:07:07.176Z,4.50
2018-01-23T03:09:36.261Z,5.03
2018-01-23T03:12:05.319Z,5.47
2018-01-23T03:14:34.285Z,4.67
2018-01-23T03:17:03.260Z,6.30
2018-01-23T03:19:32.239Z,4.60
2018-01-23T03:22:02.112Z,4.33
2018-01-23T03:24:31.579Z,5.30
2018-01-23T03:27:01.490Z,5.00
2018-01-23T03:29:30.510Z,4.30
2018-01-23T03:31:59.454Z,4.67
2018-01-23T03:34:28.454Z,5.20
2018-01-23T03:36:57.622Z,3.93
2018-01-23T03:39:26.536Z,4.13
2018-01-23T03:41:56.259Z,4.57
2018-01-23T03:44:25.259Z,4.30
2018-01-23T03:46:54.260Z,3.50
2018-01-23T03:49:23.410Z,4.20
2018-01-23T03:51:52.615Z,4.07
2018-01-23T03:54:21.561Z,4.33
2018-01-23T03:56:50.571Z,4.60
2018-01-23T03:59:19.558Z,4.50
2018-01-23T04:01:48.622Z,5.20
2018-01-23T04:04:17.766Z,4.40
2018-01-23T04:06:46.852Z,4.23
2018-01-23T04:09:15.861Z,3.83
2018-01-23T04:11:44.853Z,4.37
2018-01-23T04:14:14.089Z,4.90
2018-01-23T04:16:43.040Z,4.50
2018-01-23T04:19:11.986Z,3.93
2018-01-23T04:21:40.965Z,4.23
2018-01-23T04:24:10.550Z,3.63
2018-01-23T04:26:39.604Z,3.20
2018-01-23T04:29:08.605Z,3.90
2018-01-23T04:31:37.554Z,3.47
2018-01-23T04:34:06.606Z,4.00
2018-01-23T04:36:35.993Z,4.00
2018-01-23T04:39:05.365Z,3.33
2018-01-23T04:41:34.562Z,3.23
2018-01-23T04:44:04.281Z,3.63
2018-01-23T04:46:33.258Z,3.50
2018-01-23T04:49:02.171Z,3.57
2018-01-23T04:51:31.129Z,3.50
2018-01-23T04:54:00.153Z,4.20
2018-01-23T04:56:29.363Z,4.33
2018-01-23T04:58:58.473Z,3.77
2018-01-23T05:01:27.432Z,3.70
2018-01-23T05:03:56.848Z,5.60
2018-01-23T05:06:25.863Z,4.00
2018-01-23T05:08:54.804Z,3.80
2018-01-23T05:11:23.850Z,4.10
2018-01-23T05:13:53.046Z,3.80
2018-01-23T05:16:22.037Z,5.07
2018-01-23T05:18:51.655Z,4.27
2018-01-23T05:21:21.766Z,5.77
2018-01-23T05:23:50.701Z,4.50
2018-01-23T05:26:20.718Z,4.60
2018-01-23T05:28:50.226Z,4.80
2018-01-23T05:31:19.285Z,4.83
2018-01-23T05:33:48.252Z,4.80
2018-01-23T05:36:17.449Z,4.60
2018-01-23T05:38:46.383Z,4.00
2018-01-23T05:41:15.599Z,4.03
2018-01-23T05:43:45.097Z,4.50
2018-01-23T05:46:14.653Z,4.53
2018-01-23T05:48:43.611Z,4.50
2018-01-23T05:51:12.616Z,4.67
2018-01-23T05:53:41.708Z,4.50
2018-01-23T05:56:10.681Z,5.00
2018-01-23T05:58:39.738Z,5.43
2018-01-23T06:01:08.812Z,5.97
2018-01-23T06:03:37.835Z,5.73
2018-01-23T06:06:07.172Z,5.43
2018-01-23T06:08:36.133Z,6.17
2018-01-23T06:11:05.303Z,5.13
2018-01-23T06:13:34.932Z,6.10
2018-01-23T06:16:03.918Z,4.90
2018-01-23T06:18:33.238Z,4.80
2018-01-23T06:21:02.347Z,5.47
2018-01-23T06:23:31.676Z,5.47
2018-01-23T06:26:00.797Z,5.57
2018-01-23T06:28:34.129Z,5.80
2018-01-23T06:31:03.151Z,5.77
2018-01-23T06:33:32.410Z,5.73
2018-01-23T06:36:02.028Z,6.00
2018-01-23T06:38:32.312Z,5.33
2018-01-23T06:41:01.565Z,5.60
2018-01-23T06:43:30.692Z,6.20
2018-01-23T06:46:00.151Z,6.30
2018-01-23T06:48:29.138Z,5.70
2018-01-23T06:50:59.553Z,6.90
2018-01-23T06:53:28.995Z,6.27
2018-01-23T06:55:57.958Z,6.93
2018-01-23T06:58:27.267Z,5.83
2018-01-23T07:00:56.214Z,6.50
2018-01-23T07:03:25.136Z,6.40
2018-01-23T07:05:54.587Z,6.67
2018-01-23T07:08:23.539Z,7.03
2018-01-23T07:10:52.500Z,5.93
2018-01-23T07:13:21.745Z,6.17
2018-01-23T07:15:50.979Z,7.17
2018-01-23T07:18:20.235Z,6.07
2018-01-23T07:20:49.445Z,5.67
2018-01-23T07:23:18.649Z,6.23
2018-01-23T07:25:47.728Z,7.03
2018-01-23T07:28:16.717Z,7.23
2018-01-23T07:30:46.070Z,7.07
2018-01-23T07:33:15.152Z,6.40
2018-01-23T07:35:44.147Z,6.73
2018-01-23T07:38:13.313Z,6.83
2018-01-23T07:40:43.194Z,6.57
2018-01-23T07:43:12.721Z,6.40
2018-01-23T07:45:41.737Z,7.67
2018-01-23T07:48:10.739Z,7.13
2018-01-23T07:50:40.065Z,6.90
2018-01-23T07:53:09.772Z,7.17
2018-01-23T07:55:40.094Z,6.80
2018-01-23T07:58:09.162Z,7.40
2018-01-23T08:00:38.680Z,6.63
2018-01-23T08:03:07.799Z,8.07
2018-01-23T08:05:37.909Z,7.60
2018-01-23T08:08:07.451Z,7.60
2018-01-23T08:10:36.451Z,8.30
2018-01-23T08:13:06.863Z,6.67
2018-01-23T08:15:35.915Z,6.63
2018-01-23T08:18:05.165Z,7.23
2018-01-23T08:20:34.563Z,9.40
2018-01-23T08:23:03.488Z,7.17
2018-01-23T08:25:32.452Z,8.63
2018-01-23T08:28:02.663Z,8.43
2018-01-23T08:30:32.337Z,8.53
2018-01-23T08:33:01.311Z,6.70
2018-01-23T08:35:30.834Z,7.03
2018-01-23T08:38:00.481Z,7.37
2018-01-23T08:40:29.522Z,7.50
2018-01-23T08:42:59.841Z,8.93
2018-01-23T08:45:29.095Z,7.60
2018-01-23T08:47:58.913Z,7.87
2018-01-23T08:50:28.040Z,7.40
2018-01-23T08:52:57.046Z,6.97
2018-01-23T08:55:27.164Z,7.63
2018-01-23T08:57:56.885Z,8.37
2018-01-23T09:00:26.084Z,8.20
2018-01-23T09:02:56.325Z,8.13
2018-01-23T09:05:26.081Z,9.03
2018-01-23T09:07:56.310Z,9.30
2018-01-23T09:10:25.510Z,8.47
2018-01-23T09:12:54.754Z,8.87
2018-01-23T09:15:23.691Z,7.47
2018-01-23T09:17:52.771Z,8.70
2018-01-23T09:20:22.465Z,7.30
2018-01-23T09:22:51.693Z,8.00
2018-01-23T09:25:20.616Z,7.57
2018-01-23T09:27:50.543Z,8.20
2018-01-23T09:30:20.306Z,8.50
2018-01-23T09:32:49.676Z,7.10
2018-01-23T09:35:18.814Z,7.93
2018-01-23T09:37:48.142Z,8.70
2018-01-23T09:40:17.662Z,7.47
2018-01-23T09:42:46.634Z,8.03
2018-01-23T09:45:16.369Z,9.33
2018-01-23T09:47:45.799Z,8.00
2018-01-23T09:50:14.802Z,9.57
2018-01-23T09:52:44.595Z,8.00
2018-01-23T09:55:14.310Z,7.80
2018-01-23T09:57:43.286Z,7.53
2018-01-23T10:00:13.506Z,8.00
2018-01-23T10:02:43.201Z,7.43
2018-01-23T10:05:12.519Z,7.27
2018-01-23T10:07:41.844Z,6.60
2018-01-23T10:10:11.326Z,7.70
2018-01-23T10:12:40.838Z,8.00
2018-01-23T10:15:10.255Z,8.00
2018-01-23T10:17:39.241Z,7.77
2018-01-23T10:20:08.769Z,7.70
2018-01-23T10:22:37.731Z,8.97
2018-01-23T10:25:07.735Z,6.83
2018-01-23T10:27:36.685Z,8.40
2018-01-23T10:30:05.739Z,6.70
2018-01-23T10:32:34.724Z,6.83
2018-01-23T10:35:03.946Z,7.40
2018-01-23T10:37:33.922Z,7.50
2018-01-23T10:40:02.854Z,7.43
2018-01-23T10:42:31.851Z,6.67
2018-01-23T10:45:02.194Z,7.50
2018-01-23T10:47:32.977Z,7.40
2018-01-23T10:50:03.439Z,6.70
2018-01-23T10:52:32.486Z,6.53
2018-01-23T10:55:01.682Z,6.90
2018-01-23T10:57:30.665Z,6.40
2018-01-23T11:00:00.096Z,8.63
2018-01-23T11:02:30.388Z,5.83
2018-01-23T11:04:59.843Z,6.93
2018-01-23T11:07:29.279Z,6.77
2018-01-23T11:09:58.226Z,6.60
2018-01-23T11:12:27.752Z,6.20
2018-01-23T11:14:56.961Z,6.60
2018-01-23T11:17:26.105Z,6.13
2018-01-23T11:19:55.087Z,8.00
2018-01-23T11:22:24.181Z,7.50
2018-01-23T11:24:53.748Z,5.87
2018-01-23T11:27:23.287Z,6.90
2018-01-23T11:29:52.751Z,6.20
2018-01-23T11:32:21.749Z,5.60
2018-01-23T11:34:50.695Z,6.40
2018-01-23T11:37:21.019Z,6.00
2018-01-23T11:39:50.054Z,5.77
2018-01-23T11:42:20.396Z,5.23
2018-01-23T11:44:49.531Z,6.67
2018-01-23T11:47:18.672Z,7.67
2018-01-23T11:49:47.920Z,6.50
2018-01-23T11:52:17.069Z,6.20
2018-01-23T11:54:46.529Z,6.83
2018-01-23T11:57:15.889Z,6.40
2018-01-23T11:59:45.525Z,8.07
2018-01-23T12:02:15.694Z,6.70
2018-01-23T12:04:45.378Z,8.57
2018-01-23T12:07:16.068Z,5.83
2018-01-23T12:09:45.364Z,7.27
2018-01-23T12:12:14.578Z,4.97
2018-01-23T12:14:43.958Z,5.50
2018-01-23T12:17:13.212Z,6.53
2018-01-23T12:19:42.423Z,5.90
2018-01-23T12:22:11.366Z,6.13
2018-01-23T12:24:40.769Z,6.40
2018-01-23T12:27:09.817Z,5.90
2018-01-23T12:29:39.296Z,8.10
2018-01-23T12:32:08.246Z,7.03
2018-01-23T12:34:37.546Z,6.77
2018-01-23T12:37:07.795Z,5.87
2018-01-23T12:39:37.056Z,7.33
2018-01-23T12:42:06.679Z,5.90
2018-01-23T12:44:35.601Z,7.37
2018-01-23T12:47:05.549Z,6.53
2018-01-23T12:49:35.096Z,7.27
2018-01-23T12:52:04.292Z,6.03
2018-01-23T12:54:33.781Z,4.80
2018-01-23T12:57:03.307Z,6.83
2018-01-23T12:59:33.608Z,5.50
2018-01-23T13:02:02.554Z,5.97
2018-01-23T13:04:32.338Z,7.10
2018-01-23T13:07:01.308Z,6.73
2018-01-23T13:09:30.506Z,6.23
2018-01-23T13:12:00.322Z,5.40
2018-01-23T13:14:29.261Z,4.83
2018-01-23T13:16:59.049Z,5.60
2018-01-23T13:19:28.726Z,5.50
2018-01-23T13:21:57.918Z,6.40
2018-01-23T13:24:27.917Z,6.30
2018-01-23T13:26:58.743Z,5.77
2018-01-23T13:29:28.433Z,4.77
2018-01-23T13:31:57.404Z,5.80
2018-01-23T13:34:26.358Z,4.97
2018-01-23T13:36:55.531Z,6.10
2018-01-23T13:39:24.642Z,5.77
2018-01-23T13:41:53.658Z,5.73
2018-01-23T13:44:23.263Z,6.20
2018-01-23T13:46:52.801Z,5.97
2018-01-23T13:49:22.222Z,5.57
2018-01-23T13:51:52.065Z,5.27
2018-01-23T13:54:21.048Z,5.17
2018-01-23T13:56:50.751Z,5.93
2018-01-23T13:59:21.302Z,4.63
2018-01-23T14:01:50.939Z,5.33
2018-01-23T14:04:20.389Z,6.30
2018-01-23T14:06:49.392Z,5.70
2018-01-23T14:09:19.023Z,5.23
2018-01-23T14:11:48.529Z,6.00
2018-01-23T14:14:18.715Z,7.63
2018-01-23T14:16:47.840Z,4.87
2018-01-23T14:19:16.803Z,6.93
2018-01-23T14:21:46.145Z,6.43
2018-01-23T14:24:15.201Z,5.50
2018-01-23T14:26:46.024Z,6.57
2018-01-23T14:29:14.956Z,4.80
2018-01-23T14:31:44.947Z,4.83
2018-01-23T14:34:14.945Z,4.53
2018-01-23T14:36:44.611Z,5.53
2018-01-23T14:39:13.667Z,4.70
2018-01-23T14:41:42.760Z,4.80
2018-01-23T14:44:11.918Z,4.90
2018-01-23T14:46:41.223Z,4.53
2018-01-23T14:49:10.225Z,3.97
2018-01-23T14:51:41.549Z,3.23
2018-01-23T14:54:10.489Z,3.40
2018-01-23T14:56:39.708Z,4.33
2018-01-23T14:59:08.802Z,4.57
2018-01-23T15:01:38.456Z,4.20
2018-01-23T15:04:07.908Z,3.50
2018-01-23T15:06:36.892Z,3.90
2018-01-23T15:09:06.466Z,4.03
2018-01-23T15:11:36.863Z,4.43
2018-01-23T15:14:08.317Z,4.13
2018-01-23T15:16:37.672Z,4.70
2018-01-23T15:19:07.094Z,3.93
2018-01-23T15:21:36.526Z,5.33
2018-01-23T15:24:05.648Z,6.00
2018-01-23T15:26:34.559Z,4.13
2018-01-23T15:29:03.471Z,4.00
2018-01-23T15:31:33.702Z,4.57
2018-01-23T15:34:03.668Z,4.20
2018-01-23T15:36:32.598Z,3.90
2018-01-23T15:39:01.572Z,4.70
2018-01-23T15:41:30.883Z,4.17
2018-01-23T15:43:59.899Z,4.63
2018-01-23T15:46:29.193Z,5.77
2018-01-23T15:48:59.512Z,4.50
2018-01-23T15:51:28.744Z,4.30
2018-01-23T15:53:59.163Z,4.70
2018-01-23T15:56:28.457Z,6.17
2018-01-23T15:58:57.698Z,4.97
2018-01-23T16:01:26.855Z,5.30
2018-01-23T16:03:56.177Z,3.90
2018-01-23T16:06:25.250Z,4.63
2018-01-23T16:08:54.536Z,4.30
2018-01-23T16:11:23.986Z,4.70
2018-01-23T16:13:53.764Z,5.23
2018-01-23T16:16:22.781Z,5.73
2018-01-23T16:18:52.414Z,4.43
2018-01-23T16:21:21.663Z,4.90
2018-01-23T16:23:51.368Z,4.10
2018-01-23T16:26:20.530Z,3.40
2018-01-23T16:28:49.469Z,3.60
2018-01-23T16:31:18.679Z,6.63
2018-01-23T16:33:47.695Z,4.83
2018-01-23T16:36:17.055Z,4.50
2018-01-23T16:38:47.058Z,4.13
2018-01-23T16:41:16.628Z,5.13
2018-01-23T16:43:45.831Z,5.63
2018-01-23T16:46:15.073Z,4.43
2018-01-23T16:48:44.648Z,3.90
2018-01-23T16:51:15.066Z,3.67
2018-01-23T16:53:44.962Z,4.63
2018-01-23T16:56:13.918Z,4.90
2018-01-23T16:58:43.438Z,5.13
2018-01-23T17:01:12.358Z,6.73
2018-01-23T17:03:41.618Z,4.80
2018-01-23T17:06:12.091Z,5.13
2018-01-23T17:08:41.531Z,4.30
2018-01-23T17:11:11.242Z,5.27
2018-01-23T17:13:40.360Z,3.57
2018-01-23T17:16:09.795Z,3.60
2018-01-23T17:18:39.168Z,4.50
2018-01-23T17:21:08.656Z,3.97
2018-01-23T17:23:38.766Z,4.20
2018-01-23T17:26:07.986Z,5.13
2018-01-23T17:28:36.914Z,4.20
2018-01-23T17:31:07.662Z,4.20
2018-01-23T17:33:36.610Z,4.10
2018-01-23T17:36:05.574Z,4.97
2018-01-23T17:38:34.749Z,5.73
2018-01-23T17:41:04.092Z,5.90
2018-01-23T17:43:33.506Z,11.90
2018-01-23T17:46:02.705Z,9.70
2018-01-23T17:48:31.720Z,5.50
2018-01-23T17:51:01.814Z,6.43
2018-01-23T17:53:30.742Z,7.50
2018-01-23T17:55:59.920Z,11.43
2018-01-23T17:58:29.363Z,6.70
2018-01-23T18:00:58.729Z,5.50
2018-01-23T18:03:27.773Z,4.03
2018-01-23T18:05:57.800Z,6.40
2018-01-23T18:08:27.079Z,4.63
2018-01-23T18:10:56.665Z,4.80
2018-01-23T18:13:25.956Z,5.40
2018-01-23T18:15:55.021Z,5.20
2018-01-23T18:18:23.934Z,5.17
2018-01-23T18:20:53.253Z,5.00
2018-01-23T18:23:23.297Z,5.50
2018-01-23T18:25:53.130Z,6.17
2018-01-23T18:28:23.410Z,5.60
2018-01-23T18:30:52.727Z,5.83
2018-01-23T18:33:21.825Z,5.53
2018-01-23T18:35:50.781Z,5.50
2018-01-23T18:38:19.714Z,6.30
2018-01-23T18:40:48.927Z,6.33
2018-01-23T18:43:18.698Z,7.00
2018-01-23T18:45:47.671Z,5.77
2018-01-23T18:48:17.638Z,6.33
2018-01-23T18:50:46.859Z,6.60
2018-01-23T18:53:15.995Z,6.93
2018-01-23T18:55:45.009Z,7.50
2018-01-23T18:58:13.944Z,7.17
2018-01-23T19:00:44.099Z,6.53
2018-01-23T20:27:44.091Z,5.60
2018-01-23T20:32:47.129Z,6.87
2018-01-23T20:35:16.360Z,6.07
2018-01-23T20:37:46.463Z,6.30
2018-01-23T20:40:15.992Z,6.10
2018-01-23T20:42:46.316Z,5.27
2018-01-23T20:45:15.784Z,5.83
2018-01-23T20:47:45.098Z,4.50
2018-01-23T20:50:14.287Z,3.67
2018-01-23T20:52:43.537Z,5.40
2018-01-23T20:55:13.174Z,4.53
2018-01-23T20:57:45.441Z,4.10
2018-01-23T21:00:14.650Z,4.63
2018-01-23T21:02:45.063Z,4.83
2018-01-23T21:05:14.006Z,4.40
2018-01-23T21:07:44.462Z,4.87
2018-01-23T21:10:13.780Z,4.30
2018-01-23T21:12:45.261Z,5.17
2018-01-23T21:15:14.658Z,4.37
2018-01-23T21:17:43.224Z,3.93
2018-01-23T21:20:11.624Z,4.60
2018-01-23T21:22:39.414Z,3.93
2018-01-23T21:25:09.573Z,4.20
2018-01-23T21:27:37.986Z,4.60
2018-01-23T21:30:07.033Z,4.73
2018-01-23T21:32:34.779Z,4.20
2018-01-23T21:35:02.839Z,4.67
2018-01-23T21:37:31.449Z,4.33
2018-01-23T21:40:01.209Z,4.50
2018-01-23T21:42:28.878Z,5.07
2018-01-23T21:44:56.700Z,5.23
2018-01-23T21:47:24.552Z,4.43
2018-01-23T21:49:52.239Z,4.17
2018-01-23T21:52:20.927Z,4.23
2018-01-23T21:54:49.384Z,4.83
2018-01-23T21:57:16.940Z,4.10
2018-01-23T21:59:44.734Z,4.70
2018-01-23T22:02:14.427Z,5.30
2018-01-23T22:04:42.182Z,4.63
2018-01-23T22:07:09.991Z,4.73
2018-01-23T22:09:38.403Z,4.90
2018-01-23T22:12:07.532Z,4.33
2018-01-23T22:14:35.123Z,4.20
2018-01-23T22:17:02.754Z,3.70
2018-01-23T22:19:30.337Z,4.13
2018-01-23T22:21:59.240Z,3.90
2018-01-23T22:24:27.280Z,4.50
2018-01-23T22:26:54.966Z,4.87
2018-01-23T22:29:24.633Z,4.00
2018-01-23T22:31:52.521Z,4.40
2018-01-23T22:34:20.641Z,4.03
2018-01-23T22:36:48.575Z,3.90
2018-01-23T22:39:16.452Z,4.23
2018-01-23T22:41:44.049Z,3.50
2018-01-23T22:44:11.647Z,4.50
2018-01-23T22:46:39.411Z,4.63
2018-01-23T22:49:08.558Z,3.80
2018-01-23T22:51:36.377Z,3.70
2018-01-23T22:54:03.974Z,3.93
2018-01-23T22:56:32.646Z,3.53
2018-01-23T22:59:00.355Z,3.30
2018-01-23T23:01:27.934Z,3.60
2018-01-23T23:03:55.931Z,3.07
2018-01-23T23:06:25.172Z,3.20
2018-01-23T23:08:53.690Z,4.03
2018-01-23T23:11:21.659Z,4.30
2018-01-23T23:13:49.311Z,3.40
2018-01-23T23:16:17.799Z,3.73
2018-01-23T23:18:45.686Z,3.03
2018-01-23T23:21:13.629Z,3.10
2018-01-23T23:23:41.313Z,3.17
2018-01-23T23:26:08.942Z,3.53
2018-01-23T23:28:37.290Z,3.60
2018-01-23T23:31:10.222Z,3.57
2018-01-23T23:33:38.130Z,2.80
2018-01-23T23:36:06.009Z,2.60
2018-01-23T23:38:33.724Z,3.30
2018-01-23T23:41:01.493Z,3.67
2018-01-23T23:43:29.418Z,3.10
2018-01-23T23:45:57.260Z,3.80
2018-01-23T23:48:25.219Z,3.40
2018-01-23T23:50:52.790Z,3.53
2018-01-23T23:53:20.743Z,3.37
2018-01-23T23:55:48.374Z,3.97
2018-01-23T23:58:15.943Z,3.87
